createdAt,value
2022-09-24T05:15:47.216Z,10.68
2022-09-24T05:18:13.663Z,8.97
2022-09-24T05:20:41.071Z,8.45
2022-09-24T05:23:07.488Z,9.02
2022-09-24T05:25:33.889Z,9.30
2022-09-24T05:28:00.475Z,9.48
2022-09-24T05:30:26.990Z,9.10
2022-09-24T05:32:53.421Z,10.85
2022-09-24T05:35:21.179Z,8.88
2022-09-24T05:37:49.613Z,8.70
2022-09-24T05:40:35.357Z,8.50
2022-09-24T05:43:02.813Z,9.80
2022-09-24T05:45:30.310Z,10.65
2022-09-24T05:47:56.874Z,10.27
2022-09-24T05:50:23.330Z,11.23
2022-09-24T05:52:49.742Z,11.50
2022-09-24T05:55:16.207Z,12.90
2022-09-24T05:57:42.606Z,14.25
2022-09-24T06:00:09.463Z,12.43
2022-09-24T06:02:36.009Z,15.43
2022-09-24T06:05:02.511Z,12.57
2022-09-24T06:07:28.986Z,13.77
2022-09-24T06:09:55.401Z,13.05
2022-09-24T06:12:23.489Z,12.43
2022-09-24T06:14:49.921Z,13.18
2022-09-24T06:17:16.375Z,13.20
2022-09-24T06:19:42.997Z,10.33
2022-09-24T06:22:09.426Z,11.05
2022-09-24T06:24:35.878Z,12.35
2022-09-24T06:27:02.294Z,12.38
2022-09-24T06:29:28.693Z,13.75
2022-09-24T06:31:55.121Z,14.63
2022-09-24T06:34:21.601Z,12.70
2022-09-24T06:36:48.031Z,11.57
2022-09-24T06:39:14.490Z,12.77
2022-09-24T06:41:40.905Z,13.60
2022-09-24T06:44:07.702Z,14.97
2022-09-24T06:46:34.167Z,15.63
2022-09-24T06:49:00.633Z,11.55
2022-09-24T06:51:27.059Z,12.35
2022-09-24T06:53:53.661Z,15.10
2022-09-24T06:56:20.129Z,12.93
2022-09-24T06:58:46.648Z,14.00
2022-09-24T07:01:13.151Z,17.25
2022-09-24T07:03:40.200Z,14.60
2022-09-24T07:06:07.029Z,13.90
2022-09-24T07:08:33.792Z,16.00
2022-09-24T07:11:00.794Z,16.30
2022-09-24T07:13:27.683Z,14.70
2022-09-24T07:15:54.162Z,16.25
2022-09-24T07:18:20.998Z,14.77
2022-09-24T07:20:55.262Z,15.20
2022-09-24T07:23:22.308Z,15.32
2022-09-24T07:25:49.205Z,15.27
2022-09-24T07:28:16.100Z,15.80
2022-09-24T07:30:42.561Z,18.30
2022-09-24T07:33:09.339Z,14.60
2022-09-24T07:35:39.489Z,14.95
2022-09-24T07:38:12.247Z,18.80
2022-09-24T07:40:39.365Z,18.27
2022-09-24T07:43:07.510Z,15.77
2022-09-24T07:45:33.960Z,15.27
2022-09-24T07:48:02.025Z,16.25
2022-09-24T07:50:31.989Z,17.88
2022-09-24T07:52:58.863Z,16.42
2022-09-24T07:55:26.010Z,20.40
2022-09-24T07:57:54.204Z,17.20
2022-09-24T08:00:21.750Z,16.95
2022-09-24T08:02:48.745Z,19.70
2022-09-24T08:05:16.583Z,21.27
2022-09-24T08:07:43.181Z,15.65
2022-09-24T08:10:09.942Z,17.67
2022-09-24T08:12:36.432Z,19.05
2022-09-24T08:15:02.941Z,20.45
2022-09-24T08:17:29.347Z,21.95
2022-09-24T08:19:56.779Z,22.85
2022-09-24T08:22:24.869Z,20.13
2022-09-24T08:24:51.311Z,22.77
2022-09-24T08:27:17.758Z,17.83
2022-09-24T08:29:44.221Z,19.83
2022-09-24T08:32:10.662Z,22.05
2022-09-24T08:34:40.457Z,20.03
2022-09-24T08:37:07.947Z,20.00
2022-09-24T08:39:34.413Z,20.88
2022-09-24T08:42:06.346Z,18.48
2022-09-24T08:44:57.555Z,18.65
2022-09-24T08:47:55.140Z,17.37
2022-09-24T08:50:29.504Z,17.98
2022-09-24T08:53:23.734Z,17.35
2022-09-24T08:55:53.254Z,17.65
2022-09-24T08:58:44.678Z,17.60
2022-09-24T09:01:17.039Z,16.80
2022-09-24T09:03:48.251Z,16.33
2022-09-24T09:06:39.621Z,19.15
2022-09-24T09:09:19.729Z,19.02
2022-09-24T09:11:52.161Z,16.67
2022-09-24T09:14:41.751Z,16.93
2022-09-24T09:17:11.750Z,15.85
2022-09-24T09:19:39.914Z,13.63
2022-09-24T09:22:17.336Z,13.85
2022-09-24T09:24:52.438Z,14.55
2022-09-24T09:27:20.227Z,13.50
2022-09-24T09:29:53.223Z,13.45
2022-09-24T09:32:48.956Z,11.88
2022-09-24T09:35:24.309Z,13.60
2022-09-24T09:38:19.127Z,12.40
2022-09-24T09:40:57.547Z,12.47
2022-09-24T09:43:24.713Z,14.30
2022-09-24T09:46:25.599Z,11.85
2022-09-24T09:48:55.379Z,10.73
2022-09-24T09:51:25.861Z,9.68
2022-09-24T09:53:57.189Z,10.30
2022-09-24T09:56:26.515Z,8.82
2022-09-24T09:59:02.429Z,10.50
2022-09-24T10:01:33.486Z,8.65
2022-09-24T10:04:04.803Z,8.57
2022-09-24T10:06:35.900Z,9.80
2022-09-24T10:09:13.362Z,8.48
2022-09-24T10:11:39.887Z,12.20
2022-09-24T10:14:10.502Z,8.15
2022-09-24T10:16:42.392Z,7.25
2022-09-24T10:19:19.173Z,9.67
2022-09-24T10:21:45.683Z,6.72
2022-09-24T10:24:18.675Z,7.47
2022-09-24T10:26:46.186Z,8.13
2022-09-24T10:29:33.842Z,6.93
2022-09-24T10:32:00.583Z,8.67
2022-09-24T10:34:28.924Z,5.63
2022-09-24T10:37:14.877Z,5.80
2022-09-24T10:39:41.637Z,6.13
2022-09-24T10:42:38.309Z,6.88
2022-09-24T10:45:13.931Z,6.10
2022-09-24T10:48:24.009Z,6.18
2022-09-24T10:51:08.758Z,8.32
2022-09-24T10:53:52.650Z,5.78
2022-09-24T10:56:39.847Z,5.90
2022-09-24T10:59:45.497Z,6.03
2022-09-24T11:02:36.704Z,5.80
2022-09-24T11:05:12.541Z,5.88
2022-09-24T11:07:52.629Z,5.68
2022-09-24T11:10:40.653Z,5.10
2022-09-24T11:13:23.205Z,5.23
2022-09-24T11:15:58.542Z,7.57
2022-09-24T11:18:45.786Z,5.45
2022-09-24T11:21:36.514Z,7.45
2022-09-24T11:24:15.258Z,5.70
2022-09-24T11:27:02.708Z,7.73
2022-09-24T11:29:52.815Z,5.68
2022-09-24T11:32:32.950Z,5.40
2022-09-24T11:35:21.165Z,5.65
2022-09-24T11:37:56.631Z,6.97
2022-09-24T11:40:40.722Z,6.03
2022-09-24T11:43:28.416Z,6.40
2022-09-24T11:46:00.924Z,5.43
2022-09-24T11:48:50.494Z,6.20
2022-09-24T11:51:30.802Z,6.03
2022-09-24T11:54:04.062Z,5.50
2022-09-24T11:56:33.520Z,6.28
2022-09-24T11:59:18.901Z,4.78
2022-09-24T12:01:50.746Z,6.93
2022-09-24T12:04:21.754Z,5.00
2022-09-24T12:06:54.133Z,6.60
2022-09-24T12:09:30.383Z,5.72
2022-09-24T12:12:12.669Z,4.47
2022-09-24T12:14:39.042Z,6.93
2022-09-24T12:17:07.474Z,7.50
2022-09-24T12:19:46.712Z,6.47
2022-09-24T12:22:13.430Z,5.05
2022-09-24T12:24:45.205Z,5.80
2022-09-24T12:27:14.614Z,6.32
2022-09-24T12:30:19.600Z,8.05
2022-09-24T12:32:54.806Z,7.27
2022-09-24T12:35:33.355Z,12.15
2022-09-24T12:38:08.950Z,5.95
